createdAt,value
2017-10-07T00:00:56.459Z,8.10
2017-10-07T00:03:26.598Z,7.90
2017-10-07T00:05:56.951Z,7.90
2017-10-07T00:08:27.487Z,7.80
2017-10-07T00:10:57.803Z,7.70
2017-10-07T00:13:28.731Z,7.70
2017-10-07T00:15:58.262Z,7.70
2017-10-07T00:18:28.527Z,8.00
2017-10-07T00:20:58.459Z,8.00
2017-10-07T00:23:28.572Z,8.00
2017-10-07T00:25:58.531Z,8.20
2017-10-07T00:28:29.387Z,8.30
2017-10-07T00:30:59.343Z,8.30
2017-10-07T00:33:29.695Z,8.30
2017-10-07T00:35:59.535Z,8.10
2017-10-07T00:38:29.530Z,7.90
2017-10-07T00:40:59.363Z,7.70
2017-10-07T00:43:29.515Z,7.80
2017-10-07T00:45:59.498Z,7.80
2017-10-07T00:48:30.230Z,7.80
2017-10-07T00:50:59.991Z,7.80
2017-10-07T00:53:30.443Z,8.00
2017-10-07T00:56:01.062Z,8.10
2017-10-07T00:58:30.989Z,8.10
2017-10-07T01:01:01.018Z,8.20
2017-10-07T01:03:30.943Z,8.20
2017-10-07T01:06:01.277Z,8.30
2017-10-07T01:08:32.027Z,8.20
2017-10-07T01:11:01.864Z,8.10
2017-10-07T01:13:32.118Z,8.20
2017-10-07T01:16:02.194Z,8.20
2017-10-07T01:18:32.350Z,8.40
2017-10-07T01:21:02.915Z,8.20
2017-10-07T01:23:32.892Z,8.20
2017-10-07T01:26:03.235Z,7.90
2017-10-07T01:28:33.360Z,7.90
2017-10-07T01:31:04.254Z,7.80
2017-10-07T01:33:34.048Z,7.80
2017-10-07T01:36:03.952Z,7.90
2017-10-07T01:38:35.048Z,8.10
2017-10-07T01:41:04.963Z,8.30
2017-10-07T01:43:35.179Z,8.20
2017-10-07T01:46:05.807Z,8.10
2017-10-07T01:48:36.727Z,8.20
2017-10-07T01:51:06.659Z,8.20
2017-10-07T01:53:37.181Z,8.10
2017-10-07T01:56:07.132Z,8.20
2017-10-07T01:58:37.859Z,8.20
2017-10-07T02:01:07.958Z,8.10
2017-10-07T02:03:38.039Z,8.00
2017-10-07T02:06:08.591Z,7.90
2017-10-07T02:08:38.422Z,7.70
2017-10-07T02:11:08.424Z,7.50
2017-10-07T02:13:38.595Z,7.50
2017-10-07T02:16:08.291Z,7.50
2017-10-07T02:18:38.343Z,7.60
2017-10-07T02:21:08.347Z,7.50
2017-10-07T02:23:38.402Z,7.70
2017-10-07T02:26:08.654Z,7.70
2017-10-07T02:28:38.631Z,7.70
2017-10-07T02:31:08.338Z,7.60
2017-10-07T02:33:38.303Z,7.50
2017-10-07T02:36:08.775Z,7.40
2017-10-07T02:38:39.043Z,7.40
2017-10-07T02:41:09.639Z,7.70
2017-10-07T02:43:39.634Z,7.70
2017-10-07T02:46:09.931Z,7.60
2017-10-07T02:48:40.815Z,7.70
2017-10-07T02:51:11.203Z,7.70
2017-10-07T02:53:42.097Z,7.70
2017-10-07T02:56:12.220Z,7.70
2017-10-07T02:58:42.659Z,7.60
2017-10-07T03:01:12.508Z,7.60
2017-10-07T03:03:43.396Z,7.30
2017-10-07T03:06:13.914Z,7.30
